sensor_id;sensor_type;location;lat;lon;timestamp;pressure;altitude;pressure_sealevel;temperature;humidity
61408;BME280;47274;43.054;25.146;2023-07-20T00:01:25;95516.00;;;19.37;89.67
61408;BME280;47274;43.054;25.146;2023-07-20T00:03:51;95534.22;;;19.51;89.46
61408;BME280;47274;43.054;25.146;2023-07-20T00:06:35;95464.97;;;19.16;89.27
61408;BME280;47274;43.054;25.146;2023-07-20T00:09:07;95389.78;;;18.75;89.08
61408;BME280;47274;43.054;25.146;2023-07-20T00:11:36;95404.19;;;18.98;87.98
61408;BME280;47274;43.054;25.146;2023-07-20T00:14:12;95402.00;;;18.94;86.85
61408;BME280;47274;43.054;25.146;2023-07-20T00:16:56;95396.56;;;19.16;84.35
61408;BME280;47274;43.054;25.146;2023-07-20T00:19:24;95457.53;;;19.67;85.50
61408;BME280;47274;43.054;25.146;2023-07-20T00:21:53;95375.34;;;19.12;84.72
61408;BME280;47274;43.054;25.146;2023-07-20T00:24:25;95367.75;;;19.11;84.12
61408;BME280;47274;43.054;25.146;2023-07-20T00:26:51;95430.13;;;19.44;85.82
61408;BME280;47274;43.054;25.146;2023-07-20T00:29:17;95348.56;;;19.05;87.57
61408;BME280;47274;43.054;25.146;2023-07-20T00:31:43;95340.31;;;19.28;85.38
61408;BME280;47274;43.054;25.146;2023-07-20T00:34:15;95306.84;;;19.38;85.51
61408;BME280;47274;43.054;25.146;2023-07-20T00:36:47;95260.09;;;19.18;85.03
61408;BME280;47274;43.054;25.146;2023-07-20T00:39:15;95218.63;;;19.24;86.51
61408;BME280;47274;43.054;25.146;2023-07-20T00:41:41;95099.59;;;18.87;93.59
61408;BME280;47274;43.054;25.146;2023-07-20T00:44:07;95046.81;;;18.29;92.56
61408;BME280;47274;43.054;25.146;2023-07-20T00:46:33;95026.97;;;17.96;91.61
61408;BME280;47274;43.054;25.146;2023-07-20T00:49:00;95173.03;;;18.63;93.66
61408;BME280;47274;43.054;25.146;2023-07-20T00:51:26;95152.53;;;18.35;93.53
61408;BME280;47274;43.054;25.146;2023-07-20T00:53:55;95148.94;;;18.29;95.65
61408;BME280;47274;43.054;25.146;2023-07-20T00:56:22;95077.88;;;17.97;93.27
61408;BME280;47274;43.054;25.146;2023-07-20T00:58:48;95093.44;;;18.17;nan
61408;BME280;47274;43.054;25.146;2023-07-20T01:01:17;95083.00;;;18.30;92.07
61408;BME280;47274;43.054;25.146;2023-07-20T01:04:08;95026.06;;;18.29;90.99
61408;BME280;47274;43.054;25.146;2023-07-20T01:06:58;95036.56;;;18.54;91.85
61408;BME280;47274;43.054;25.146;2023-07-20T01:12:55;95031.78;;;18.44;90.98
61408;BME280;47274;43.054;25.146;2023-07-20T01:15:23;95019.63;;;18.38;89.56
61408;BME280;47274;43.054;25.146;2023-07-20T01:18:02;94993.28;;;18.34;89.20
61408;BME280;47274;43.054;25.146;2023-07-20T01:20:41;95052.16;;;18.92;86.60
61408;BME280;47274;43.054;25.146;2023-07-20T01:23:26;95023.66;;;18.79;84.23
61408;BME280;47274;43.054;25.146;2023-07-20T01:26:23;95092.94;;;19.55;84.52
61408;BME280;47274;43.054;25.146;2023-07-20T01:32:18;95028.72;;;19.24;80.96
61408;BME280;47274;43.054;25.146;2023-07-20T01:34:47;95042.97;;;19.46;81.53
61408;BME280;47274;43.054;25.146;2023-07-20T01:37:15;95017.78;;;19.40;80.44
61408;BME280;47274;43.054;25.146;2023-07-20T01:39:42;95054.97;;;19.72;79.90
61408;BME280;47274;43.054;25.146;2023-07-20T01:42:08;95027.56;;;19.45;80.12
61408;BME280;47274;43.054;25.146;2023-07-20T01:44:36;95015.34;;;19.45;78.95
61408;BME280;47274;43.054;25.146;2023-07-20T01:47:10;94988.31;;;19.21;79.94
61408;BME280;47274;43.054;25.146;2023-07-20T01:49:39;95057.16;;;19.75;79.98
61408;BME280;47274;43.054;25.146;2023-07-20T01:52:06;95000.59;;;19.39;79.47
61408;BME280;47274;43.054;25.146;2023-07-20T01:54:34;94973.84;;;19.32;78.59
61408;BME280;47274;43.054;25.146;2023-07-20T01:57:00;95046.53;;;19.77;78.97
61408;BME280;47274;43.054;25.146;2023-07-20T01:59:35;95063.03;;;19.89;77.57
61408;BME280;47274;43.054;25.146;2023-07-20T02:02:08;95062.34;;;20.00;77.68
61408;BME280;47274;43.054;25.146;2023-07-20T02:04:34;95063.19;;;20.12;76.26
61408;BME280;47274;43.054;25.146;2023-07-20T02:07:00;95052.78;;;20.12;76.72
61408;BME280;47274;43.054;25.146;2023-07-20T02:09:26;95065.06;;;20.24;75.48
61408;BME280;47274;43.054;25.146;2023-07-20T02:11:52;95058.44;;;20.28;76.10
61408;BME280;47274;43.054;25.146;2023-07-20T02:14:19;95077.53;;;20.22;76.89
61408;BME280;47274;43.054;25.146;2023-07-20T02:17:09;95005.50;;;19.72;77.34
61408;BME280;47274;43.054;25.146;2023-07-20T02:19:40;94991.34;;;19.43;81.87
61408;BME280;47274;43.054;25.146;2023-07-20T02:22:06;95038.03;;;19.38;84.50
61408;BME280;47274;43.054;25.146;2023-07-20T02:24:33;95075.28;;;19.63;83.35
61408;BME280;47274;43.054;25.146;2023-07-20T02:26:59;94999.41;;;19.35;82.37
61408;BME280;47274;43.054;25.146;2023-07-20T02:29:25;95006.78;;;19.38;83.14
61408;BME280;47274;43.054;25.146;2023-07-20T02:31:51;94989.59;;;19.37;81.72
61408;BME280;47274;43.054;25.146;2023-07-20T02:34:17;95026.66;;;19.57;82.07
61408;BME280;47274;43.054;25.146;2023-07-20T02:36:43;95004.31;;;19.25;82.34
61408;BME280;47274;43.054;25.146;2023-07-20T02:39:09;95071.06;;;19.62;83.08
61408;BME280;47274;43.054;25.146;2023-07-20T02:41:37;95027.03;;;19.36;82.01
61408;BME280;47274;43.054;25.146;2023-07-20T02:44:03;95045.22;;;19.42;81.67
61408;BME280;47274;43.054;25.146;2023-07-20T02:46:29;95054.38;;;19.45;82.64
61408;BME280;47274;43.054;25.146;2023-07-20T02:48:55;95033.56;;;19.20;84.05
61408;BME280;47274;43.054;25.146;2023-07-20T02:51:21;95070.56;;;19.22;85.16
61408;BME280;47274;43.054;25.146;2023-07-20T02:53:53;95026.00;;;18.80;86.82
61408;BME280;47274;43.054;25.146;2023-07-20T02:56:21;95042.47;;;18.74;87.54
61408;BME280;47274;43.054;25.146;2023-07-20T02:58:57;94992.75;;;18.19;89.33
61408;BME280;47274;43.054;25.146;2023-07-20T03:01:31;95060.75;;;18.47;89.85
61408;BME280;47274;43.054;25.146;2023-07-20T03:04:02;95002.19;;;18.00;90.80
61408;BME280;47274;43.054;25.146;2023-07-20T03:06:38;95094.72;;;18.46;92.75
61408;BME280;47274;43.054;25.146;2023-07-20T03:09:14;94989.09;;;17.68;93.93
61408;BME280;47274;43.054;25.146;2023-07-20T03:11:43;95059.69;;;18.04;94.58
61408;BME280;47274;43.054;25.146;2023-07-20T03:14:11;94995.06;;;17.62;95.26
61408;BME280;47274;43.054;25.146;2023-07-20T03:16:38;95013.00;;;17.90;94.61
61408;BME280;47274;43.054;25.146;2023-07-20T03:19:04;95040.44;;;18.31;86.00
61408;BME280;47274;43.054;25.146;2023-07-20T03:21:52;95045.66;;;18.76;86.58
61408;BME280;47274;43.054;25.146;2023-07-20T03:24:22;95070.03;;;19.13;85.74
61408;BME280;47274;43.054;25.146;2023-07-20T03:26:50;95112.34;;;19.59;84.65
61408;BME280;47274;43.054;25.146;2023-07-20T03:29:23;95056.66;;;19.35;82.97
61408;BME280;47274;43.054;25.146;2023-07-20T03:31:55;95072.91;;;19.55;81.97
61408;BME280;47274;43.054;25.146;2023-07-20T03:34:44;95125.84;;;19.99;84.10
61408;BME280;47274;43.054;25.146;2023-07-20T03:40:11;95133.50;;;19.94;86.32
61408;BME280;47274;43.054;25.146;2023-07-20T03:42:38;95120.00;;;19.79;86.56
61408;BME280;47274;43.054;25.146;2023-07-20T03:45:09;95087.00;;;19.48;88.60
61408;BME280;47274;43.054;25.146;2023-07-20T03:48:03;95051.44;;;19.10;87.74
61408;BME280;47274;43.054;25.146;2023-07-20T03:50:32;95061.53;;;19.25;87.99
61408;BME280;47274;43.054;25.146;2023-07-20T03:53:17;95048.97;;;19.22;87.97
61408;BME280;47274;43.054;25.146;2023-07-20T03:56:03;95083.81;;;19.46;87.60
61408;BME280;47274;43.054;25.146;2023-07-20T03:59:11;95050.22;;;19.37;88.49
61408;BME280;47274;43.054;25.146;2023-07-20T04:02:19;95058.69;;;19.33;88.28
61408;BME280;47274;43.054;25.146;2023-07-20T04:04:47;95149.00;;;19.82;88.27
61408;BME280;47274;43.054;25.146;2023-07-20T04:07:26;95101.47;;;19.62;87.68
61408;BME280;47274;43.054;25.146;2023-07-20T04:09:57;95057.47;;;19.35;87.85
61408;BME280;47274;43.054;25.146;2023-07-20T04:12:23;95126.53;;;19.88;87.72
61408;BME280;47274;43.054;25.146;2023-07-20T04:14:51;95056.72;;;19.53;86.66
61408;BME280;47274;43.054;25.146;2023-07-20T04:17:23;95078.03;;;19.69;86.17
61408;BME280;47274;43.054;25.146;2023-07-20T04:19:49;95151.22;;;20.29;85.23
61408;BME280;47274;43.054;25.146;2023-07-20T04:22:24;95111.53;;;20.08;84.12
61408;BME280;47274;43.054;25.146;2023-07-20T04:24:52;95048.13;;;19.78;82.46
61408;BME280;47274;43.054;25.146;2023-07-20T04:27:26;95050.88;;;19.83;82.39
61408;BME280;47274;43.054;25.146;2023-07-20T04:30:10;95063.84;;;20.08;82.23
61408;BME280;47274;43.054;25.146;2023-07-20T04:32:47;95050.16;;;19.94;81.45
61408;BME280;47274;43.054;25.146;2023-07-20T04:36:01;95144.00;;;20.68;81.86
61408;BME280;47274;43.054;25.146;2023-07-20T04:38:47;95134.53;;;20.73;81.11
61408;BME280;47274;43.054;25.146;2023-07-20T04:41:22;95039.16;;;20.29;80.49
61408;BME280;47274;43.054;25.146;2023-07-20T04:44:06;95078.22;;;20.47;80.27
61408;BME280;47274;43.054;25.146;2023-07-20T04:46:53;95100.25;;;20.70;80.15
61408;BME280;47274;43.054;25.146;2023-07-20T04:49:38;95083.19;;;20.55;79.90
61408;BME280;47274;43.054;25.146;2023-07-20T04:52:07;95143.50;;;20.96;79.54
61408;BME280;47274;43.054;25.146;2023-07-20T04:54:35;95113.94;;;20.83;78.91
61408;BME280;47274;43.054;25.146;2023-07-20T04:57:11;95128.31;;;21.04;79.45
61408;BME280;47274;43.054;25.146;2023-07-20T04:59:44;95099.41;;;21.06;78.68
61408;BME280;47274;43.054;25.146;2023-07-20T05:02:10;95158.69;;;21.59;77.27
61408;BME280;47274;43.054;25.146;2023-07-20T05:04:48;95056.97;;;21.11;74.05
61408;BME280;47274;43.054;25.146;2023-07-20T05:07:14;95108.00;;;21.37;74.26
61408;BME280;47274;43.054;25.146;2023-07-20T05:09:43;95067.88;;;20.77;75.48
61408;BME280;47274;43.054;25.146;2023-07-20T05:12:13;95090.97;;;20.92;80.00
61408;BME280;47274;43.054;25.146;2023-07-20T05:14:39;95022.22;;;20.20;85.74
61408;BME280;47274;43.054;25.146;2023-07-20T05:17:05;95050.97;;;20.13;89.84
61408;BME280;47274;43.054;25.146;2023-07-20T05:19:41;95079.19;;;19.98;96.73
61408;BME280;47274;43.054;25.146;2023-07-20T05:22:07;95078.09;;;20.05;94.99
61408;BME280;47274;43.054;25.146;2023-07-20T05:24:33;95049.59;;;20.10;94.59
61408;BME280;47274;43.054;25.146;2023-07-20T05:26:59;95110.94;;;20.06;91.63
61408;BME280;47274;43.054;25.146;2023-07-20T05:29:27;95081.88;;;20.28;88.30
61408;BME280;47274;43.054;25.146;2023-07-20T05:31:53;95131.44;;;20.21;88.65
61408;BME280;47274;43.054;25.146;2023-07-20T05:34:19;95126.78;;;20.67;86.15
61408;BME280;47274;43.054;25.146;2023-07-20T05:36:46;95106.59;;;21.22;82.54
61408;BME280;47274;43.054;25.146;2023-07-20T05:39:12;95111.94;;;21.81;78.88
61408;BME280;47274;43.054;25.146;2023-07-20T05:41:37;95074.03;;;22.02;75.35
61408;BME280;47274;43.054;25.146;2023-07-20T05:44:03;95089.22;;;21.70;74.14
61408;BME280;47274;43.054;25.146;2023-07-20T05:46:29;95111.72;;;21.83;77.92
61408;BME280;47274;43.054;25.146;2023-07-20T05:48:55;95086.38;;;21.60;74.05
61408;BME280;47274;43.054;25.146;2023-07-20T05:51:21;95075.94;;;21.71;74.04
61408;BME280;47274;43.054;25.146;2023-07-20T05:53:49;95103.34;;;22.16;70.48
61408;BME280;47274;43.054;25.146;2023-07-20T05:56:18;95070.31;;;22.50;71.43
61408;BME280;47274;43.054;25.146;2023-07-20T05:58:44;95115.66;;;22.67;70.53
61408;BME280;47274;43.054;25.146;2023-07-20T06:01:10;95078.75;;;22.81;71.51
61408;BME280;47274;43.054;25.146;2023-07-20T06:03:38;95116.25;;;22.98;71.24
61408;BME280;47274;43.054;25.146;2023-07-20T06:06:04;95084.47;;;23.06;70.78
61408;BME280;47274;43.054;25.146;2023-07-20T06:08:31;95079.28;;;23.23;71.22
61408;BME280;47274;43.054;25.146;2023-07-20T06:10:57;95094.53;;;23.60;66.31
61408;BME280;47274;43.054;25.146;2023-07-20T06:13:23;95039.22;;;23.39;64.20
61408;BME280;47274;43.054;25.146;2023-07-20T06:15:49;95093.41;;;24.06;66.12
61408;BME280;47274;43.054;25.146;2023-07-20T06:18:15;95080.09;;;24.30;65.69
61408;BME280;47274;43.054;25.146;2023-07-20T06:20:41;95066.53;;;24.55;64.77
61408;BME280;47274;43.054;25.146;2023-07-20T06:23:13;95069.63;;;25.01;63.91
61408;BME280;47274;43.054;25.146;2023-07-20T06:25:39;95046.31;;;25.04;63.22
61408;BME280;47274;43.054;25.146;2023-07-20T06:28:16;95074.81;;;25.50;64.19
61408;BME280;47274;43.054;25.146;2023-07-20T06:30:45;95054.34;;;25.52;61.18
61408;BME280;47274;43.054;25.146;2023-07-20T06:33:14;95125.72;;;26.08;60.54
61408;BME280;47274;43.054;25.146;2023-07-20T06:35:43;95052.13;;;25.71;61.33
61408;BME280;47274;43.054;25.146;2023-07-20T06:38:21;95133.28;;;26.37;59.67
61408;BME280;47274;43.054;25.146;2023-07-20T06:40:52;95091.03;;;26.11;59.42
61408;BME280;47274;43.054;25.146;2023-07-20T06:43:20;95080.34;;;26.28;59.21
61408;BME280;47274;43.054;25.146;2023-07-20T06:45:55;95102.94;;;26.19;56.92
61408;BME280;47274;43.054;25.146;2023-07-20T06:48:24;95086.94;;;26.31;58.64
61408;BME280;47274;43.054;25.146;2023-07-20T06:50:50;95061.84;;;26.08;57.84
61408;BME280;47274;43.054;25.146;2023-07-20T06:53:18;95105.31;;;26.26;58.12
61408;BME280;47274;43.054;25.146;2023-07-20T06:55:47;95095.38;;;26.33;58.07
61408;BME280;47274;43.054;25.146;2023-07-20T06:58:23;95114.97;;;26.52;59.42
61408;BME280;47274;43.054;25.146;2023-07-20T07:00:59;95083.97;;;26.64;58.66
61408;BME280;47274;43.054;25.146;2023-07-20T07:03:25;95083.94;;;26.59;58.58
61408;BME280;47274;43.054;25.146;2023-07-20T07:05:55;95131.31;;;27.37;60.02
61408;BME280;47274;43.054;25.146;2023-07-20T07:08:23;95101.56;;;27.42;59.00
61408;BME280;47274;43.054;25.146;2023-07-20T07:10:57;95112.63;;;27.75;58.45
61408;BME280;47274;43.054;25.146;2023-07-20T07:13:43;95150.59;;;28.20;56.18
61408;BME280;47274;43.054;25.146;2023-07-20T07:16:25;95078.91;;;27.82;56.67
61408;BME280;47274;43.054;25.146;2023-07-20T07:19:32;95081.25;;;27.68;55.15
61408;BME280;47274;43.054;25.146;2023-07-20T07:22:06;95078.34;;;28.05;57.09
61408;BME280;47274;43.054;25.146;2023-07-20T07:24:36;95088.09;;;28.05;55.49
61408;BME280;47274;43.054;25.146;2023-07-20T07:27:05;95147.44;;;28.23;55.37
61408;BME280;47274;43.054;25.146;2023-07-20T07:29:31;95122.16;;;27.91;57.69
61408;BME280;47274;43.054;25.146;2023-07-20T07:31:57;95150.34;;;28.06;57.51
61408;BME280;47274;43.054;25.146;2023-07-20T07:34:30;95101.56;;;27.62;55.45
61408;BME280;47274;43.054;25.146;2023-07-20T07:37:06;95103.44;;;27.77;54.92
61408;BME280;47274;43.054;25.146;2023-07-20T07:39:33;95114.22;;;27.76;55.98
61408;BME280;47274;43.054;25.146;2023-07-20T07:42:26;95111.31;;;27.93;54.00
61408;BME280;47274;43.054;25.146;2023-07-20T07:45:08;95133.19;;;28.39;53.05
61408;BME280;47274;43.054;25.146;2023-07-20T07:47:40;95120.50;;;28.26;54.66
61408;BME280;47274;43.054;25.146;2023-07-20T07:50:09;95137.13;;;28.42;53.23
61408;BME280;47274;43.054;25.146;2023-07-20T07:52:35;95136.56;;;28.50;54.23
61408;BME280;47274;43.054;25.146;2023-07-20T07:55:11;95154.47;;;28.68;53.88
61408;BME280;47274;43.054;25.146;2023-07-20T07:57:37;95169.16;;;28.95;53.42
61408;BME280;47274;43.054;25.146;2023-07-20T08:00:14;95172.88;;;28.89;52.69
61408;BME280;47274;43.054;25.146;2023-07-20T08:02:47;95118.66;;;28.42;50.59
61408;BME280;47274;43.054;25.146;2023-07-20T08:05:14;95174.22;;;28.86;51.47
61408;BME280;47274;43.054;25.146;2023-07-20T08:07:44;95186.66;;;28.86;51.74
61408;BME280;47274;43.054;25.146;2023-07-20T08:10:11;95185.66;;;28.56;51.52
61408;BME280;47274;43.054;25.146;2023-07-20T08:12:39;95153.78;;;28.11;48.21
61408;BME280;47274;43.054;25.146;2023-07-20T08:15:05;95192.53;;;28.26;50.11
61408;BME280;47274;43.054;25.146;2023-07-20T08:17:36;95123.66;;;28.38;49.47
61408;BME280;47274;43.054;25.146;2023-07-20T08:20:12;95132.81;;;28.71;49.19
61408;BME280;47274;43.054;25.146;2023-07-20T08:22:54;95134.22;;;28.48;50.26
61408;BME280;47274;43.054;25.146;2023-07-20T08:25:30;95158.66;;;28.74;50.35
61408;BME280;47274;43.054;25.146;2023-07-20T08:28:02;95122.53;;;28.65;47.82
61408;BME280;47274;43.054;25.146;2023-07-20T08:30:41;95130.31;;;27.95;48.50
61408;BME280;47274;43.054;25.146;2023-07-20T08:33:13;95180.09;;;27.65;50.61
61408;BME280;47274;43.054;25.146;2023-07-20T08:35:39;95159.78;;;27.51;51.83
61408;BME280;47274;43.054;25.146;2023-07-20T08:38:08;95185.38;;;27.65;51.97
61408;BME280;47274;43.054;25.146;2023-07-20T08:40:54;95250.34;;;28.38;51.31
61408;BME280;47274;43.054;25.146;2023-07-20T08:46:23;95184.34;;;28.53;49.56
61408;BME280;47274;43.054;25.146;2023-07-20T08:48:55;95224.41;;;28.86;49.08
61408;BME280;47274;43.054;25.146;2023-07-20T08:51:23;95192.28;;;28.43;48.30
61408;BME280;47274;43.054;25.146;2023-07-20T08:53:55;95201.28;;;28.42;49.25
61408;BME280;47274;43.054;25.146;2023-07-20T08:56:25;95200.06;;;29.04;47.61
61408;BME280;47274;43.054;25.146;2023-07-20T08:59:05;95221.66;;;29.27;46.48
61408;BME280;47274;43.054;25.146;2023-07-20T09:01:43;95190.00;;;29.56;46.53
61408;BME280;47274;43.054;25.146;2023-07-20T09:04:13;95210.69;;;29.49;45.36
61408;BME280;47274;43.054;25.146;2023-07-20T09:06:42;95254.75;;;29.69;45.05
61408;BME280;47274;43.054;25.146;2023-07-20T09:09:08;95180.16;;;29.22;45.23
61408;BME280;47274;43.054;25.146;2023-07-20T09:11:37;95158.84;;;28.98;44.02
61408;BME280;47274;43.054;25.146;2023-07-20T09:14:07;95188.31;;;29.26;45.20
61408;BME280;47274;43.054;25.146;2023-07-20T09:17:18;95193.66;;;30.05;43.86
61408;BME280;47274;43.054;25.146;2023-07-20T09:19:48;95180.63;;;29.35;45.05
61408;BME280;47274;43.054;25.146;2023-07-20T09:22:14;95210.81;;;29.73;44.87
61408;BME280;47274;43.054;25.146;2023-07-20T09:24:43;95186.94;;;29.88;45.10
61408;BME280;47274;43.054;25.146;2023-07-20T09:29:56;95200.22;;;29.78;45.59
61408;BME280;47274;43.054;25.146;2023-07-20T09:32:22;95123.06;;;28.67;46.10
61408;BME280;47274;43.054;25.146;2023-07-20T09:35:29;95105.25;;;28.93;46.48
61408;BME280;47274;43.054;25.146;2023-07-20T09:38:05;95157.09;;;29.38;46.28
61408;BME280;47274;43.054;25.146;2023-07-20T09:40:37;95096.53;;;28.92;47.12
61408;BME280;47274;43.054;25.146;2023-07-20T09:43:12;95196.34;;;30.34;46.66
61408;BME280;47274;43.054;25.146;2023-07-20T09:45:44;95178.69;;;30.53;45.61
61408;BME280;47274;43.054;25.146;2023-07-20T09:48:13;95141.63;;;30.29;47.09
61408;BME280;47274;43.054;25.146;2023-07-20T09:50:49;95129.53;;;30.42;45.07
61408;BME280;47274;43.054;25.146;2023-07-20T09:53:18;95147.63;;;30.59;44.16
61408;BME280;47274;43.054;25.146;2023-07-20T09:55:57;95170.09;;;30.90;44.55
61408;BME280;47274;43.054;25.146;2023-07-20T09:58:26;95155.34;;;30.84;45.32
61408;BME280;47274;43.054;25.146;2023-07-20T10:00:57;95188.09;;;31.36;43.96
61408;BME280;47274;43.054;25.146;2023-07-20T10:03:37;95136.78;;;30.84;44.02
61408;BME280;47274;43.054;25.146;2023-07-20T10:06:39;95215.06;;;31.62;44.37
61408;BME280;47274;43.054;25.146;2023-07-20T10:09:12;95138.97;;;31.20;43.47
61408;BME280;47274;43.054;25.146;2023-07-20T10:11:45;95114.03;;;31.02;42.77
61408;BME280;47274;43.054;25.146;2023-07-20T10:14:24;95142.56;;;31.29;42.83
61408;BME280;47274;43.054;25.146;2023-07-20T10:17:01;95142.19;;;31.17;43.31
61408;BME280;47274;43.054;25.146;2023-07-20T10:19:50;95164.00;;;31.52;43.06
61408;BME280;47274;43.054;25.146;2023-07-20T10:22:26;95166.38;;;31.53;42.74
61408;BME280;47274;43.054;25.146;2023-07-20T10:25:03;95107.88;;;31.26;41.74
61408;BME280;47274;43.054;25.146;2023-07-20T10:27:38;95153.09;;;31.91;42.02
61408;BME280;47274;43.054;25.146;2023-07-20T10:30:11;95129.31;;;32.00;43.04
61408;BME280;47274;43.054;25.146;2023-07-20T10:32:40;95105.94;;;31.83;40.23
61408;BME280;47274;43.054;25.146;2023-07-20T10:35:17;95112.03;;;31.70;40.25
61408;BME280;47274;43.054;25.146;2023-07-20T10:38:03;95187.25;;;32.44;40.07
61408;BME280;47274;43.054;25.146;2023-07-20T10:40:54;95143.88;;;32.02;38.81
61408;BME280;47274;43.054;25.146;2023-07-20T10:43:28;95191.31;;;32.42;40.42
61408;BME280;47274;43.054;25.146;2023-07-20T10:45:54;95182.78;;;31.74;41.59
61408;BME280;47274;43.054;25.146;2023-07-20T10:48:22;95190.75;;;32.26;39.92
61408;BME280;47274;43.054;25.146;2023-07-20T10:51:14;95195.53;;;32.24;39.37
61408;BME280;47274;43.054;25.146;2023-07-20T11:01:55;95114.00;;;31.97;39.15
61408;BME280;47274;43.054;25.146;2023-07-20T11:04:48;95179.72;;;32.93;40.77
61408;BME280;47274;43.054;25.146;2023-07-20T11:18:28;95106.97;;;32.75;40.46
61408;BME280;47274;43.054;25.146;2023-07-20T11:21:08;95135.41;;;33.02;41.03
61408;BME280;47274;43.054;25.146;2023-07-20T11:23:38;95061.41;;;32.82;40.08
61408;BME280;47274;43.054;25.146;2023-07-20T11:26:04;95080.38;;;33.02;40.29
61408;BME280;47274;43.054;25.146;2023-07-20T11:28:35;95071.63;;;32.88;39.25
61408;BME280;47274;43.054;25.146;2023-07-20T11:31:02;95103.81;;;33.37;39.73
61408;BME280;47274;43.054;25.146;2023-07-20T11:33:35;95135.94;;;33.40;39.63
61408;BME280;47274;43.054;25.146;2023-07-20T11:36:01;95163.44;;;32.39;40.17
61408;BME280;47274;43.054;25.146;2023-07-20T11:38:27;95067.63;;;31.75;41.00
61408;BME280;47274;43.054;25.146;2023-07-20T11:40:53;95123.91;;;32.79;39.41
61408;BME280;47274;43.054;25.146;2023-07-20T11:46:06;95099.34;;;31.99;39.87
61408;BME280;47274;43.054;25.146;2023-07-20T11:48:41;95036.03;;;32.34;38.33
61408;BME280;47274;43.054;25.146;2023-07-20T11:54:03;95086.44;;;32.53;38.02
61408;BME280;47274;43.054;25.146;2023-07-20T11:56:55;94985.03;;;31.35;40.31
61408;BME280;47274;43.054;25.146;2023-07-20T11:59:24;94961.69;;;29.71;40.59
61408;BME280;47274;43.054;25.146;2023-07-20T12:02:01;94973.91;;;30.15;41.95
61408;BME280;47274;43.054;25.146;2023-07-20T12:04:31;95057.44;;;30.93;40.37
61408;BME280;47274;43.054;25.146;2023-07-20T12:07:08;95062.38;;;31.00;39.03
61408;BME280;47274;43.054;25.146;2023-07-20T12:13:04;95002.53;;;29.89;41.21
61408;BME280;47274;43.054;25.146;2023-07-20T12:15:44;95012.47;;;30.26;40.50
61408;BME280;47274;43.054;25.146;2023-07-20T12:21:24;95015.34;;;30.91;41.13
61408;BME280;47274;43.054;25.146;2023-07-20T12:23:56;94983.00;;;30.09;41.42
61408;BME280;47274;43.054;25.146;2023-07-20T12:26:32;94995.59;;;29.93;43.51
61408;BME280;47274;43.054;25.146;2023-07-20T12:29:04;94976.97;;;30.03;42.45
61408;BME280;47274;43.054;25.146;2023-07-20T12:34:21;94957.88;;;30.30;42.86
61408;BME280;47274;43.054;25.146;2023-07-20T12:39:42;94962.09;;;30.31;43.59
61408;BME280;47274;43.054;25.146;2023-07-20T12:44:58;95003.66;;;30.74;42.19
61408;BME280;47274;43.054;25.146;2023-07-20T12:50:14;95019.84;;;31.10;42.17
61408;BME280;47274;43.054;25.146;2023-07-20T12:52:40;94977.06;;;31.16;41.68
61408;BME280;47274;43.054;25.146;2023-07-20T12:55:09;94984.75;;;31.51;40.79
61408;BME280;47274;43.054;25.146;2023-07-20T12:57:36;94971.44;;;31.83;41.50
61408;BME280;47274;43.054;25.146;2023-07-20T13:00:09;95024.63;;;32.20;39.99
61408;BME280;47274;43.054;25.146;2023-07-20T13:02:41;94948.59;;;31.55;39.85
61408;BME280;47274;43.054;25.146;2023-07-20T13:05:16;94955.78;;;31.68;41.28
61408;BME280;47274;43.054;25.146;2023-07-20T13:07:44;94998.09;;;32.06;41.18
61408;BME280;47274;43.054;25.146;2023-07-20T13:10:21;94962.91;;;31.86;41.43
61408;BME280;47274;43.054;25.146;2023-07-20T13:13:10;94955.94;;;32.04;41.06
61408;BME280;47274;43.054;25.146;2023-07-20T13:15:46;94972.31;;;32.34;40.71
61408;BME280;47274;43.054;25.146;2023-07-20T13:18:19;94938.91;;;32.05;41.03
61408;BME280;47274;43.054;25.146;2023-07-20T13:20:50;94946.88;;;31.92;40.31
61408;BME280;47274;43.054;25.146;2023-07-20T13:23:15;94975.88;;;31.88;41.77
61408;BME280;47274;43.054;25.146;2023-07-20T13:25:41;94991.09;;;31.36;41.00
61408;BME280;47274;43.054;25.146;2023-07-20T13:28:07;94992.97;;;31.16;42.19
61408;BME280;47274;43.054;25.146;2023-07-20T13:30:35;94989.47;;;31.54;42.17
61408;BME280;47274;43.054;25.146;2023-07-20T13:33:03;94985.28;;;31.67;41.16
61408;BME280;47274;43.054;25.146;2023-07-20T13:35:39;94952.84;;;31.56;40.49
61408;BME280;47274;43.054;25.146;2023-07-20T13:38:11;95018.34;;;32.16;41.06
61408;BME280;47274;43.054;25.146;2023-07-20T13:40:39;94957.81;;;31.90;40.69
61408;BME280;47274;43.054;25.146;2023-07-20T13:43:04;94943.72;;;32.03;40.48
61408;BME280;47274;43.054;25.146;2023-07-20T13:48:14;94911.28;;;31.51;40.76
61408;BME280;47274;43.054;25.146;2023-07-20T13:53:31;94915.28;;;31.49;40.52
61408;BME280;47274;43.054;25.146;2023-07-20T13:56:17;94935.72;;;31.62;40.43
61408;BME280;47274;43.054;25.146;2023-07-20T13:58:47;94926.59;;;31.68;40.59
61408;BME280;47274;43.054;25.146;2023-07-20T14:04:10;94997.91;;;32.02;40.20
61408;BME280;47274;43.054;25.146;2023-07-20T14:12:22;94960.00;;;31.69;40.14
61408;BME280;47274;43.054;25.146;2023-07-20T14:14:48;95003.91;;;31.94;40.18
61408;BME280;47274;43.054;25.146;2023-07-20T14:17:14;95003.47;;;31.41;39.87
61408;BME280;47274;43.054;25.146;2023-07-20T14:19:39;94990.34;;;30.98;39.58
61408;BME280;47274;43.054;25.146;2023-07-20T14:22:07;94981.13;;;30.76;42.18
61408;BME280;47274;43.054;25.146;2023-07-20T14:24:33;94918.63;;;30.37;42.83
61408;BME280;47274;43.054;25.146;2023-07-20T14:30:01;94956.47;;;30.14;43.68
61408;BME280;47274;43.054;25.146;2023-07-20T14:35:26;94933.78;;;30.51;42.79